Terminal Aerodrome Forecast
Issued by NWS

Home | Current Version | Previous Version | Text Only | Print | Product List | Glossary Off
Versions: 1 2 3 4 5 6 7 8 9 10 11 12 13 14 15 16 17 18 19 20 21 22 23 24 25 26

944
FTUS43 KTOP 240308 AAA
TAFFOE
TAF AMD
KFOE 240308Z 2403/2424 17019G28KT P6SM SCT250
     FM241400 18017G26KT P6SM SCT020 BKN035
     FM241900 16013KT P6SM VCTS BKN050CB=

USA.gov is the U.S. government's official web portal to all federal, state and local government web resources and services.